Aviation Digital Data Service (ADDS)

Output produced by METARs form (0324 UTC 26 February 2018)
found at http://aviationweather.gov/adds/metars/
 
METAR text: RKPC 260300Z 36006KT 310V020 CAVOK 09/M02 Q1026 NOSIG
Conditions at: RKPC (JEJU INTL AIRPO , KR) observed 0300 UTC 26 February 2018
Temperature: 9.0°C (48°F)
Dewpoint: -2.0°C (28°F) [RH = 46%]
Pressure (altimeter): 30.30 inches Hg (1026.0 mb)
Winds: from the N (360 degrees) at 7 MPH (6 knots; 3.1 m/s)
Visibility: 6 or more miles (10+ km)
Ceiling: ceiling and visibility are OK
Clouds: unknown
Weather: no significant weather observed at this time

METAR text: RKPC 260200Z 01006KT 330V030 CAVOK 09/M02 Q1026 NOSIG
Conditions at: RKPC (JEJU INTL AIRPO , KR) observed 0200 UTC 26 February 2018
Temperature: 9.0°C (48°F)
Dewpoint: -2.0°C (28°F) [RH = 46%]
Pressure (altimeter): 30.30 inches Hg (1026.0 mb)
Winds: from the N (10 degrees) at 7 MPH (6 knots; 3.1 m/s)
Visibility: 6 or more miles (10+ km)
Ceiling: ceiling and visibility are OK
Clouds: unknown
Weather: no significant weather observed at this time

METAR text: RKPC 260100Z 02004KT 350V050 CAVOK 09/M02 Q1026 NOSIG
Conditions at: RKPC (JEJU INTL AIRPO , KR) observed 0100 UTC 26 February 2018
Temperature: 9.0°C (48°F)
Dewpoint: -2.0°C (28°F) [RH = 46%]
Pressure (altimeter): 30.30 inches Hg (1026.0 mb)
Winds: from the NNE (20 degrees) at 5 MPH (4 knots; 2.1 m/s)
Visibility: 6 or more miles (10+ km)
Ceiling: ceiling and visibility are OK
Clouds: unknown
Weather: no significant weather observed at this time

METAR text: RKPC 260000Z 34002KT CAVOK 08/M02 Q1026 NOSIG
Conditions at: RKPC (JEJU INTL AIRPO , KR) observed 0000 UTC 26 February 2018
Temperature: 8.0°C (46°F)
Dewpoint: -2.0°C (28°F) [RH = 49%]
Pressure (altimeter): 30.30 inches Hg (1026.0 mb)
Winds: from the NNW (340 degrees) at 2 MPH (2 knots; 1.0 m/s)
Visibility: 6 or more miles (10+ km)
Ceiling: ceiling and visibility are OK
Clouds: unknown
Weather: no significant weather observed at this time

METAR text: RKPC 252300Z 19003KT 150V210 CAVOK 05/M03 Q1025 NOSIG
Conditions at: RKPC (JEJU INTL AIRPO , KR) observed 2300 UTC 25 February 2018
Temperature: 5.0°C (41°F)
Dewpoint: -3.0°C (27°F) [RH = 56%]
Pressure (altimeter): 30.27 inches Hg (1025.0 mb)
Winds: from the S (190 degrees) at 3 MPH (3 knots; 1.6 m/s)
Visibility: 6 or more miles (10+ km)
Ceiling: ceiling and visibility are OK
Clouds: unknown
Weather: no significant weather observed at this time

METAR text: RKPC 252200Z 20004KT CAVOK 03/M04 Q1025 NOSIG
Conditions at: RKPC (JEJU INTL AIRPO , KR) observed 2200 UTC 25 February 2018
Temperature: 3.0°C (37°F)
Dewpoint: -4.0°C (25°F) [RH = 60%]
Pressure (altimeter): 30.27 inches Hg (1025.0 mb)
Winds: from the SSW (200 degrees) at 5 MPH (4 knots; 2.1 m/s)
Visibility: 6 or more miles (10+ km)
Ceiling: ceiling and visibility are OK
Clouds: unknown
Weather: no significant weather observed at this time

METAR text: RKPC 252100Z 19003KT 150V230 CAVOK 03/M03 Q1024 NOSIG
Conditions at: RKPC (JEJU INTL AIRPO , KR) observed 2100 UTC 25 February 2018
Temperature: 3.0°C (37°F)
Dewpoint: -3.0°C (27°F) [RH = 65%]
Pressure (altimeter): 30.24 inches Hg (1024.0 mb)
Winds: from the S (190 degrees) at 3 MPH (3 knots; 1.6 m/s)
Visibility: 6 or more miles (10+ km)
Ceiling: ceiling and visibility are OK
Clouds: unknown
Weather: no significant weather observed at this time

METAR text: RKPC 252000Z 14002KT CAVOK 03/M04 Q1024 NOSIG
Conditions at: RKPC (JEJU INTL AIRPO , KR) observed 2000 UTC 25 February 2018
Temperature: 3.0°C (37°F)
Dewpoint: -4.0°C (25°F) [RH = 60%]
Pressure (altimeter): 30.24 inches Hg (1024.0 mb)
Winds: from the SE (140 degrees) at 2 MPH (2 knots; 1.0 m/s)
Visibility: 6 or more miles (10+ km)
Ceiling: ceiling and visibility are OK
Clouds: unknown
Weather: no significant weather observed at this time

METAR text: RKPC 251900Z 15002KT CAVOK 04/M03 Q1024 NOSIG
Conditions at: RKPC (JEJU INTL AIRPO , KR) observed 1900 UTC 25 February 2018
Temperature: 4.0°C (39°F)
Dewpoint: -3.0°C (27°F) [RH = 60%]
Pressure (altimeter): 30.24 inches Hg (1024.0 mb)
Winds: from the SSE (150 degrees) at 2 MPH (2 knots; 1.0 m/s)
Visibility: 6 or more miles (10+ km)
Ceiling: ceiling and visibility are OK
Clouds: unknown
Weather: no significant weather observed at this time

METAR text: RKPC 251800Z 16003KT 120V190 CAVOK 05/M03 Q1024 NOSIG
Conditions at: RKPC (JEJU INTL AIRPO , KR) observed 1800 UTC 25 February 2018
Temperature: 5.0°C (41°F)
Dewpoint: -3.0°C (27°F) [RH = 56%]
Pressure (altimeter): 30.24 inches Hg (1024.0 mb)
Winds: from the SSE (160 degrees) at 3 MPH (3 knots; 1.6 m/s)
Visibility: 6 or more miles (10+ km)
Ceiling: ceiling and visibility are OK
Clouds: unknown
Weather: no significant weather observed at this time

METAR text: RKPC 251700Z 12003KT 360V140 CAVOK 05/M04 Q1024 NOSIG
Conditions at: RKPC (JEJU INTL AIRPO , KR) observed 1700 UTC 25 February 2018
Temperature: 5.0°C (41°F)
Dewpoint: -4.0°C (25°F) [RH = 52%]
Pressure (altimeter): 30.24 inches Hg (1024.0 mb)
Winds: from the ESE (120 degrees) at 3 MPH (3 knots; 1.6 m/s)
Visibility: 6 or more miles (10+ km)
Ceiling: ceiling and visibility are OK
Clouds: unknown
Weather: no significant weather observed at this time

METAR text: RKPC 251600Z 08003KT 030V140 CAVOK 05/M04 Q1024 NOSIG
Conditions at: RKPC (JEJU INTL AIRPO , KR) observed 1600 UTC 25 February 2018
Temperature: 5.0°C (41°F)
Dewpoint: -4.0°C (25°F) [RH = 52%]
Pressure (altimeter): 30.24 inches Hg (1024.0 mb)
Winds: from the E (80 degrees) at 3 MPH (3 knots; 1.6 m/s)
Visibility: 6 or more miles (10+ km)
Ceiling: ceiling and visibility are OK
Clouds: unknown
Weather: no significant weather observed at this time

METAR text: RKPC 251500Z 07003KT 350V100 CAVOK 06/M03 Q1024 NOSIG
Conditions at: RKPC (JEJU INTL AIRPO , KR) observed 1500 UTC 25 February 2018
Temperature: 6.0°C (43°F)
Dewpoint: -3.0°C (27°F) [RH = 52%]
Pressure (altimeter): 30.24 inches Hg (1024.0 mb)
Winds: from the ENE (70 degrees) at 3 MPH (3 knots; 1.6 m/s)
Visibility: 6 or more miles (10+ km)
Ceiling: ceiling and visibility are OK
Clouds: unknown
Weather: no significant weather observed at this time

METAR text: RKPC 251400Z 02004KT 340V070 CAVOK 07/M03 Q1024 NOSIG
Conditions at: RKPC (JEJU INTL AIRPO , KR) observed 1400 UTC 25 February 2018
Temperature: 7.0°C (45°F)
Dewpoint: -3.0°C (27°F) [RH = 49%]
Pressure (altimeter): 30.24 inches Hg (1024.0 mb)
Winds: from the NNE (20 degrees) at 5 MPH (4 knots; 2.1 m/s)
Visibility: 6 or more miles (10+ km)
Ceiling: ceiling and visibility are OK
Clouds: unknown
Weather: no significant weather observed at this time

METAR text: RKPC 251300Z 30001KT CAVOK 07/M02 Q1024 NOSIG
Conditions at: RKPC (JEJU INTL AIRPO , KR) observed 1300 UTC 25 February 2018
Temperature: 7.0°C (45°F)
Dewpoint: -2.0°C (28°F) [RH = 53%]
Pressure (altimeter): 30.24 inches Hg (1024.0 mb)
Winds: from the WNW (300 degrees) at 1 MPH (1 knots; 0.5 m/s)
Visibility: 6 or more miles (10+ km)
Ceiling: ceiling and visibility are OK
Clouds: unknown
Weather: no significant weather observed at this time

METAR text: RKPC 251200Z 34004KT 310V050 CAVOK 08/M02 Q1024 NOSIG
Conditions at: RKPC (JEJU INTL AIRPO , KR) observed 1200 UTC 25 February 2018
Temperature: 8.0°C (46°F)
Dewpoint: -2.0°C (28°F) [RH = 49%]
Pressure (altimeter): 30.24 inches Hg (1024.0 mb)
Winds: from the NNW (340 degrees) at 5 MPH (4 knots; 2.1 m/s)
Visibility: 6 or more miles (10+ km)
Ceiling: ceiling and visibility are OK
Clouds: unknown
Weather: no significant weather observed at this time

METAR text: RKPC 251100Z 35007KT 310V020 CAVOK 09/M02 Q1023 NOSIG
Conditions at: RKPC (JEJU INTL AIRPO , KR) observed 1100 UTC 25 February 2018
Temperature: 9.0°C (48°F)
Dewpoint: -2.0°C (28°F) [RH = 46%]
Pressure (altimeter): 30.21 inches Hg (1023.0 mb)
Winds: from the N (350 degrees) at 8 MPH (7 knots; 3.6 m/s)
Visibility: 6 or more miles (10+ km)
Ceiling: ceiling and visibility are OK
Clouds: unknown
Weather: no significant weather observed at this time

METAR text: RKPC 251000Z 34007KT 300V020 9000 NSC 09/01 Q1023 NOSIG
Conditions at: RKPC (JEJU INTL AIRPO , KR) observed 1000 UTC 25 February 2018
Temperature: 9.0°C (48°F)
Dewpoint: 1.0°C (34°F) [RH = 57%]
Pressure (altimeter): 30.21 inches Hg (1023.0 mb)
Winds: from the NNW (340 degrees) at 8 MPH (7 knots; 3.6 m/s)
Visibility: 6 miles (9 km)
Ceiling: at least 12,000 feet AGL
Clouds: sky clear below 12,000 feet AGL
Weather: no significant weather observed at this time

METAR text: RKPC 250900Z 33004KT 270V030 8000 NSC 10/01 Q1023 NOSIG
Conditions at: RKPC (JEJU INTL AIRPO , KR) observed 0900 UTC 25 February 2018
Temperature: 10.0°C (50°F)
Dewpoint: 1.0°C (34°F) [RH = 53%]
Pressure (altimeter): 30.21 inches Hg (1023.0 mb)
Winds: from the NNW (330 degrees) at 5 MPH (4 knots; 2.1 m/s)
Visibility: 5 miles (8 km)
Ceiling: at least 12,000 feet AGL
Clouds: sky clear below 12,000 feet AGL
Weather: no significant weather observed at this time

METAR text: RKPC 250800Z 34006KT 290V020 8000 NSC 10/02 Q1022 NOSIG
Conditions at: RKPC (JEJU INTL AIRPO , KR) observed 0800 UTC 25 February 2018
Temperature: 10.0°C (50°F)
Dewpoint: 2.0°C (36°F) [RH = 57%]
Pressure (altimeter): 30.18 inches Hg (1022.0 mb)
Winds: from the NNW (340 degrees) at 7 MPH (6 knots; 3.1 m/s)
Visibility: 5 miles (8 km)
Ceiling: at least 12,000 feet AGL
Clouds: sky clear below 12,000 feet AGL
Weather: no significant weather observed at this time

METAR text: RKPC 250700Z 33007KT 290V030 7000 NSC 10/02 Q1022 NOSIG
Conditions at: RKPC (JEJU INTL AIRPO , KR) observed 0700 UTC 25 February 2018
Temperature: 10.0°C (50°F)
Dewpoint: 2.0°C (36°F) [RH = 57%]
Pressure (altimeter): 30.18 inches Hg (1022.0 mb)
Winds: from the NNW (330 degrees) at 8 MPH (7 knots; 3.6 m/s)
Visibility: 4 miles (7 km)
Ceiling: at least 12,000 feet AGL
Clouds: sky clear below 12,000 feet AGL
Weather: no significant weather observed at this time

METAR text: RKPC 250600Z 33007KT 300V360 6000 SCT025 BKN120 11/03 Q1022 NOSIG
Conditions at: RKPC (JEJU INTL AIRPO , KR) observed 0600 UTC 25 February 2018
Temperature: 11.0°C (52°F)
Dewpoint: 3.0°C (37°F) [RH = 58%]
Pressure (altimeter): 30.18 inches Hg (1022.0 mb)
Winds: from the NNW (330 degrees) at 8 MPH (7 knots; 3.6 m/s)
Visibility: 4 miles (6 km)
Ceiling: 12000 feet AGL
Clouds: scattered clouds at 2500 feet AGL
broken clouds at 12000 feet AGL
Weather: no significant weather observed at this time

METAR text: RKPC 250500Z 32007KT 280V360 6000 SCT025 BKN120 10/04 Q1022 NOSIG
Conditions at: RKPC (JEJU INTL AIRPO , KR) observed 0500 UTC 25 February 2018
Temperature: 10.0°C (50°F)
Dewpoint: 4.0°C (39°F) [RH = 66%]
Pressure (altimeter): 30.18 inches Hg (1022.0 mb)
Winds: from the NW (320 degrees) at 8 MPH (7 knots; 3.6 m/s)
Visibility: 4 miles (6 km)
Ceiling: 12000 feet AGL
Clouds: scattered clouds at 2500 feet AGL
broken clouds at 12000 feet AGL
Weather: no significant weather observed at this time

METAR text: RKPC 250400Z 33007KT 300V010 6000 SCT030 BKN120 12/05 Q1023 NOSIG
Conditions at: RKPC (JEJU INTL AIRPO , KR) observed 0400 UTC 25 February 2018
Temperature: 12.0°C (54°F)
Dewpoint: 5.0°C (41°F) [RH = 62%]
Pressure (altimeter): 30.21 inches Hg (1023.0 mb)
Winds: from the NNW (330 degrees) at 8 MPH (7 knots; 3.6 m/s)
Visibility: 4 miles (6 km)
Ceiling: 12000 feet AGL
Clouds: scattered clouds at 3000 feet AGL
broken clouds at 12000 feet AGL
Weather: no significant weather observed at this time

METAR text: RKPC 250300Z 36007KT 330V040 6000 SCT030 BKN120 12/05 Q1023 NOSIG
Conditions at: RKPC (JEJU INTL AIRPO , KR) observed 0300 UTC 25 February 2018
Temperature: 12.0°C (54°F)
Dewpoint: 5.0°C (41°F) [RH = 62%]
Pressure (altimeter): 30.21 inches Hg (1023.0 mb)
Winds: from the N (360 degrees) at 8 MPH (7 knots; 3.6 m/s)
Visibility: 4 miles (6 km)
Ceiling: 12000 feet AGL
Clouds: scattered clouds at 3000 feet AGL
broken clouds at 12000 feet AGL
Weather: no significant weather observed at this time

METAR text: RKPC 250200Z 02003KT 310V060 6000 SCT030 BKN120 11/05 Q1024 NOSIG
Conditions at: RKPC (JEJU INTL AIRPO , KR) observed 0200 UTC 25 February 2018
Temperature: 11.0°C (52°F)
Dewpoint: 5.0°C (41°F) [RH = 66%]
Pressure (altimeter): 30.24 inches Hg (1024.0 mb)
Winds: from the NNE (20 degrees) at 3 MPH (3 knots; 1.6 m/s)
Visibility: 4 miles (6 km)
Ceiling: 12000 feet AGL
Clouds: scattered clouds at 3000 feet AGL
broken clouds at 12000 feet AGL
Weather: no significant weather observed at this time

METAR text: RKPC 250100Z 01003KT 340V050 6000 BKN025 BKN120 11/05 Q1024 NOSIG
Conditions at: RKPC (JEJU INTL AIRPO , KR) observed 0100 UTC 25 February 2018
Temperature: 11.0°C (52°F)
Dewpoint: 5.0°C (41°F) [RH = 66%]
Pressure (altimeter): 30.24 inches Hg (1024.0 mb)
Winds: from the N (10 degrees) at 3 MPH (3 knots; 1.6 m/s)
Visibility: 4 miles (6 km)
Ceiling: 2500 feet AGL
Clouds: broken clouds at 2500 feet AGL
broken clouds at 12000 feet AGL
Weather: no significant weather observed at this time

METAR text: RKPC 250000Z 15002KT 6000 BKN025 OVC120 10/05 Q1024 NOSIG
Conditions at: RKPC (JEJU INTL AIRPO , KR) observed 0000 UTC 25 February 2018
Temperature: 10.0°C (50°F)
Dewpoint: 5.0°C (41°F) [RH = 71%]
Pressure (altimeter): 30.24 inches Hg (1024.0 mb)
Winds: from the SSE (150 degrees) at 2 MPH (2 knots; 1.0 m/s)
Visibility: 4 miles (6 km)
Ceiling: 2500 feet AGL
Clouds: broken clouds at 2500 feet AGL
overcast cloud deck at 12000 feet AGL
Weather: no significant weather observed at this time

METAR text: RKPC 242300Z 19005KT 140V250 6000 BKN025 OVC120 09/04 Q1024 NOSIG
Conditions at: RKPC (JEJU INTL AIRPO , KR) observed 2300 UTC 24 February 2018
Temperature: 9.0°C (48°F)
Dewpoint: 4.0°C (39°F) [RH = 71%]
Pressure (altimeter): 30.24 inches Hg (1024.0 mb)
Winds: from the S (190 degrees) at 6 MPH (5 knots; 2.6 m/s)
Visibility: 4 miles (6 km)
Ceiling: 2500 feet AGL
Clouds: broken clouds at 2500 feet AGL
overcast cloud deck at 12000 feet AGL
Weather: no significant weather observed at this time

METAR text: RKPC 242200Z 01004KT 350V060 6000 BKN020 OVC120 10/04 Q1024 NOSIG
Conditions at: RKPC (JEJU INTL AIRPO , KR) observed 2200 UTC 24 February 2018
Temperature: 10.0°C (50°F)
Dewpoint: 4.0°C (39°F) [RH = 66%]
Pressure (altimeter): 30.24 inches Hg (1024.0 mb)
Winds: from the N (10 degrees) at 5 MPH (4 knots; 2.1 m/s)
Visibility: 4 miles (6 km)
Ceiling: 2000 feet AGL
Clouds: broken clouds at 2000 feet AGL
overcast cloud deck at 12000 feet AGL
Weather: no significant weather observed at this time

METAR text: RKPC 242100Z 01008KT 340V040 6000 FEW015 BKN020 OVC100 09/04 Q1024 NOSIG
Conditions at: RKPC (JEJU INTL AIRPO , KR) observed 2100 UTC 24 February 2018
Temperature: 9.0°C (48°F)
Dewpoint: 4.0°C (39°F) [RH = 71%]
Pressure (altimeter): 30.24 inches Hg (1024.0 mb)
Winds: from the N (10 degrees) at 9 MPH (8 knots; 4.2 m/s)
Visibility: 4 miles (6 km)
Ceiling: 2000 feet AGL
Clouds: few clouds at 1500 feet AGL
broken clouds at 2000 feet AGL
overcast cloud deck at 10000 feet AGL
Weather: no significant weather observed at this time

METAR text: RKPC 242000Z 17005KT 9999 FEW040 OVC090 09/02 Q1023 NOSIG
Conditions at: RKPC (JEJU INTL AIRPO , KR) observed 2000 UTC 24 February 2018
Temperature: 9.0°C (48°F)
Dewpoint: 2.0°C (36°F) [RH = 61%]
Pressure (altimeter): 30.21 inches Hg (1023.0 mb)
Winds: from the S (170 degrees) at 6 MPH (5 knots; 2.6 m/s)
Visibility: 6 or more miles (10+ km)
Ceiling: 9000 feet AGL
Clouds: few clouds at 4000 feet AGL
overcast cloud deck at 9000 feet AGL
Weather: no significant weather observed at this time

METAR text: RKPC 241900Z 17003KT 9999 SCT040 OVC080 08/01 Q1024 NOSIG
Conditions at: RKPC (JEJU INTL AIRPO , KR) observed 1900 UTC 24 February 2018
Temperature: 8.0°C (46°F)
Dewpoint: 1.0°C (34°F) [RH = 61%]
Pressure (altimeter): 30.24 inches Hg (1024.0 mb)
Winds: from the S (170 degrees) at 3 MPH (3 knots; 1.6 m/s)
Visibility: 6 or more miles (10+ km)
Ceiling: 8000 feet AGL
Clouds: scattered clouds at 4000 feet AGL
overcast cloud deck at 8000 feet AGL
Weather: no significant weather observed at this time

METAR text: RKPC 241800Z 19004KT 9999 BKN030 OVC100 08/01 Q1024 NOSIG
Conditions at: RKPC (JEJU INTL AIRPO , KR) observed 1800 UTC 24 February 2018
Temperature: 8.0°C (46°F)
Dewpoint: 1.0°C (34°F) [RH = 61%]
Pressure (altimeter): 30.24 inches Hg (1024.0 mb)
Winds: from the S (190 degrees) at 5 MPH (4 knots; 2.1 m/s)
Visibility: 6 or more miles (10+ km)
Ceiling: 3000 feet AGL
Clouds: broken clouds at 3000 feet AGL
overcast cloud deck at 10000 feet AGL
Weather: no significant weather observed at this time

METAR text: RKPC 241700Z 19004KT 9999 BKN030 OVC120 08/01 Q1025 NOSIG
Conditions at: RKPC (JEJU INTL AIRPO , KR) observed 1700 UTC 24 February 2018
Temperature: 8.0°C (46°F)
Dewpoint: 1.0°C (34°F) [RH = 61%]
Pressure (altimeter): 30.27 inches Hg (1025.0 mb)
Winds: from the S (190 degrees) at 5 MPH (4 knots; 2.1 m/s)
Visibility: 6 or more miles (10+ km)
Ceiling: 3000 feet AGL
Clouds: broken clouds at 3000 feet AGL
overcast cloud deck at 12000 feet AGL
Weather: no significant weather observed at this time

METAR text: RKPC 241600Z 15002KT 9999 SCT030 BKN120 08/02 Q1025 NOSIG
Conditions at: RKPC (JEJU INTL AIRPO , KR) observed 1600 UTC 24 February 2018
Temperature: 8.0°C (46°F)
Dewpoint: 2.0°C (36°F) [RH = 66%]
Pressure (altimeter): 30.27 inches Hg (1025.0 mb)
Winds: from the SSE (150 degrees) at 2 MPH (2 knots; 1.0 m/s)
Visibility: 6 or more miles (10+ km)
Ceiling: 12000 feet AGL
Clouds: scattered clouds at 3000 feet AGL
broken clouds at 12000 feet AGL
Weather: no significant weather observed at this time